logo
Search for airport 
image banner adimage banner adimage banner ad
image banner ad

EIKG - Kinsale Gas Field

Located in , Ireland

ICAO - , IATA -

Data provided by Airmate  

General information

Coordinates: N51°22'18" W7°56'42"
Elevation is 215 feet MSL.
 
View others Airports in County Cork

Operational data

Special qualification required
Current time UTC:
Current local time:
Weather at : EICK - Cork ( 64 km )
METAR: EICK 191530Z 31009KT 9999 FEW020 BKN040 15/08 Q1024 NOSIG
TAF: TAF AMD EICK 191216Z 1912/2012 33013KT 9999 FEW012 BKN016 TEMPO 1912/1915 BKN012 BECMG 1922/1924 VRB03KT TEMPO 2000/2008 3000 BR PROB40 TEMPO 2000/2008 0500 FG BKN001
View NOTAMs / SUP AIP / TFR affecting this airport [VIEW]
Communications frequencies: [VIEW]

Runways:

Airport contact information

Address: Ireland

Satellite view of EIKG